createdAt,value
2023-03-25T00:03:34.811Z,8.80
2023-03-25T00:13:37.191Z,8.60
2023-03-25T00:23:41.808Z,8.60
2023-03-25T00:33:43.833Z,8.50
2023-03-25T00:43:47.144Z,8.50
2023-03-25T00:53:51.325Z,8.50
2023-03-25T01:03:55.704Z,8.50
2023-03-25T01:13:58.241Z,8.60
2023-03-25T01:24:01.648Z,8.50
2023-03-25T01:34:03.603Z,8.30
2023-03-25T01:44:09.152Z,8.30
2023-03-25T01:54:11.631Z,8.20
2023-03-25T02:04:19.258Z,8.10
2023-03-25T02:14:24.686Z,8.20
2023-03-25T02:25:05.784Z,8.30
2023-03-25T02:35:24.238Z,8.20
2023-03-25T02:45:31.556Z,8.20
2023-03-25T02:55:34.311Z,8.20
2023-03-25T03:05:41.259Z,8.30
2023-03-25T03:15:48.892Z,8.30
2023-03-25T03:25:55.399Z,8.30
2023-03-25T03:36:00.972Z,8.30
2023-03-25T03:46:07.566Z,8.30
2023-03-25T03:56:12.872Z,8.30
2023-03-25T04:06:22.009Z,8.30
2023-03-25T04:16:24.003Z,8.20
2023-03-25T04:26:27.758Z,8.20
2023-03-25T04:36:30.065Z,8.20
2023-03-25T04:46:34.010Z,8.20
2023-03-25T04:56:35.996Z,8.20
2023-03-25T05:06:41.243Z,8.20
2023-03-25T05:16:44.081Z,8.30
2023-03-25T05:26:47.443Z,8.40
2023-03-25T05:36:49.629Z,8.60
2023-03-25T05:46:52.904Z,8.80
2023-03-25T05:56:54.878Z,8.90
2023-03-25T06:06:58.228Z,9.00
2023-03-25T06:17:00.149Z,9.10
2023-03-25T06:27:04.203Z,9.10
2023-03-25T06:37:06.171Z,9.20
2023-03-25T06:47:09.538Z,9.30
2023-03-25T06:57:11.597Z,9.50
2023-03-25T07:07:15.257Z,9.60
2023-03-25T07:17:17.195Z,10.10
2023-03-25T07:27:20.495Z,10.00
2023-03-25T07:37:22.432Z,10.10
2023-03-25T07:47:25.819Z,10.30
2023-03-25T07:57:27.853Z,10.60
2023-03-25T08:07:31.278Z,10.20
2023-03-25T08:17:33.409Z,10.30
2023-03-25T08:27:36.807Z,10.70
2023-03-25T08:37:38.858Z,10.80
2023-03-25T08:47:43.466Z,10.80
2023-03-25T08:57:45.494Z,11.00
2023-03-25T09:07:48.806Z,11.10
2023-03-25T09:17:50.799Z,11.20
2023-03-25T09:27:54.284Z,11.50
2023-03-25T09:38:29.695Z,11.60
2023-03-25T09:48:37.036Z,12.90
2023-03-25T09:58:43.358Z,12.80
2023-03-25T10:09:08.951Z,12.70
2023-03-25T10:19:25.357Z,13.10
2023-03-25T10:29:34.310Z,13.80
2023-03-25T10:39:36.258Z,14.00
2023-03-25T10:49:41.223Z,13.40
2023-03-25T10:59:49.924Z,13.10
2023-03-25T11:09:53.287Z,13.30
2023-03-25T11:31:15.954Z,14.30
2023-03-25T11:52:24.729Z,14.10
2023-03-25T12:02:30.154Z,14.90
2023-03-25T12:12:46.075Z,14.70
2023-03-25T13:06:17.001Z,14.80
2023-03-25T13:16:21.608Z,14.60
2023-03-25T13:37:14.484Z,14.80
2023-03-25T13:47:21.897Z,15.00
2023-03-25T13:57:42.246Z,14.90
2023-03-25T14:08:10.265Z,15.30
2023-03-25T14:29:31.609Z,15.00
2023-03-25T14:39:40.447Z,15.40
2023-03-25T14:49:52.601Z,16.10
2023-03-25T14:59:58.503Z,15.90
2023-03-25T15:10:02.485Z,16.00
2023-03-25T15:20:28.513Z,15.90
2023-03-25T15:30:50.068Z,15.50
2023-03-25T15:41:02.207Z,15.20
2023-03-25T15:51:20.142Z,14.90
2023-03-25T16:01:27.284Z,14.50
2023-03-25T16:11:30.689Z,14.30
2023-03-25T16:21:34.346Z,14.10
2023-03-25T16:31:37.977Z,13.80
2023-03-25T16:41:44.038Z,13.70
2023-03-25T16:51:48.057Z,13.50
2023-03-25T17:01:55.678Z,13.40
2023-03-25T17:11:59.090Z,13.10
2023-03-25T17:22:12.780Z,13.00
2023-03-25T17:32:18.792Z,13.00
2023-03-25T17:42:24.299Z,12.70
2023-03-25T17:52:28.967Z,12.70
2023-03-25T18:02:32.070Z,12.50
2023-03-25T18:12:40.958Z,12.30
2023-03-25T18:22:42.970Z,12.00
2023-03-25T18:32:49.714Z,11.90
2023-03-25T18:42:52.151Z,11.70
2023-03-25T18:52:56.135Z,11.50
2023-03-25T19:02:58.297Z,11.30
2023-03-25T19:13:01.788Z,11.10
2023-03-25T19:23:04.775Z,10.90
2023-03-25T19:33:09.117Z,11.00
2023-03-25T19:43:11.098Z,10.90
2023-03-25T19:53:14.439Z,10.90
2023-03-25T20:03:16.578Z,10.90
2023-03-25T20:13:19.931Z,10.80
2023-03-25T20:23:22.235Z,10.70
2023-03-25T20:33:26.029Z,10.60
2023-03-25T20:43:27.985Z,10.60
2023-03-25T20:53:31.917Z,10.60
2023-03-25T21:03:33.915Z,10.60
2023-03-25T21:13:37.280Z,10.70
2023-03-25T21:23:39.318Z,10.60
2023-03-25T21:33:43.254Z,10.60
2023-03-25T21:43:45.280Z,10.60
2023-03-25T21:53:48.639Z,10.40
2023-03-25T22:03:51.206Z,10.20
2023-03-25T22:13:54.699Z,10.10
2023-03-25T22:23:58.670Z,10.00
2023-03-25T22:34:03.589Z,10.00
2023-03-25T22:44:06.740Z,9.90
2023-03-25T22:54:10.124Z,9.80
2023-03-25T23:04:12.159Z,9.80
2023-03-25T23:14:16.919Z,9.60
2023-03-25T23:24:18.886Z,9.50
2023-03-25T23:34:22.248Z,9.50
2023-03-25T23:44:24.224Z,9.50
2023-03-25T23:54:27.836Z,9.50
